Weather observations for the past three days for
Torrance, Zamperini Field Airport
Imperial (Metric)
Date Time (pdt) Wind (mph) Vis. (mi.) Weather Sky Cond. Temperature (ºF) Relative Humidity Wind Chill (°F) Heat Index (°F) Pressure Precipitation (in)
Air Dwpt 6 hour altimeter (in) sea level (mb) 1 hr 3 hr 6 hr
Max. Min.
03 23:35 SW 3 10.00 Fair CLR 66.6 61.3 83% 29.9 0.0
03 23:15 SW 3 10.00 Fair CLR 66.9 62.1 84% 29.89 0.0
03 22:55 Calm 10.00 Fair CLR 67.5 62.8 75.9 67.5 85% 29.89 0.0
03 22:35 W 3 10.00 Fair CLR 67.6 63 85% 29.89 0.0
03 22:15 Calm 10.00 Fair CLR 67.8 63.1 85% 29.89 0.0
03 21:55 W 5 10.00 Fair CLR 68 63.1 85% 29.89 0.0
03 21:35 W 6 10.00 Fair CLR 68.2 63.1 84% 29.89 0.0
03 21:15 NW 6 10.00 Fair CLR 68.4 63.1 84% 29.89 0.0
03 20:55 NW 6 10.00 Fair CLR 68.5 62.1 80% 29.88 0.0
03 20:35 NW 7 10.00 Fair CLR 68.7 62.2 80% 29.88 0.0
03 20:15 NW 8 10.00 Fair CLR 69.1 63.3 82% 29.87 0.0
03 19:47 W 7 10.00 A Few Clouds FEW016 69.8 64.4 83% 29.87 0.0
03 18:47 W 9 10.00 A Few Clouds FEW010 69.8 59 69% 29.87 0.0
03 17:47 W 12 10.00 A Few Clouds FEW010 73.4 60.8 65% 29.87 0.0
03 16:47 NW 14 10.00 A Few Clouds FEW010 75.2 62.6 65% 77 29.88 0.0
03 15:47 NW 15 10.00 Fair CLR 77 62.6 61% 79 29.89 0.0
03 14:47 SW 9 10.00 Fair CLR 78.8 60.8 54% 80 29.89 0.0
03 13:47 S 6 10.00 Fair CLR 78.8 60.8 54% 80 29.91 0.0
03 12:47 S 8 10.00 Partly Cloudy SCT033 78.8 60.8 54% 80 29.92 0.0
03 11:47 SE 12 10.00 Partly Cloudy SCT033 78.8 60.8 54% 80 29.95 0.0
03 10:47 Calm 10.00 Partly Cloudy SCT020 75.2 60.8 61% 77 29.95 0.0
03 09:47 Calm 10.00 Partly Cloudy SCT020 71.6 60.8 69% 29.95 0.0
03 08:47 E 3 10.00 Mostly Cloudy BKN021 71.6 62.6 73% 29.96 0.0
03 07:54 Calm 10.00 Mostly Cloudy BKN018 BKN020 68 62.6 83% 29.96 0.0
03 06:55 SW 3 10.00 Mostly Cloudy BKN021 65.5 62.1 89% 29.94 0.0
03 06:50 SW 3 10.00 Mostly Cloudy BKN021 66.2 62.6 88% 29.94 0.0
03 06:35 Calm 10.00 Mostly Cloudy BKN021 65.3 62.1 89% 29.94 0.0
03 06:15 Calm 10.00 Partly Cloudy SCT021 65.1 62.2 90% 29.94 0.0
03 05:55 Calm 10.00 Mostly Cloudy BKN020 64.4 62.1 92% 29.93 0.0
03 05:35 Calm 10.00 Partly Cloudy SCT020 65.5 62.1 89% 29.93 0.0
03 05:15 Calm 10.00 Mostly Cloudy BKN020 64.4 61.9 92% 29.93 0.0
03 04:55 Calm 10.00 Fair CLR 64.8 62.2 69.3 64.6 92% 29.94 0.0
03 04:35 W 5 10.00 Fair CLR 65.3 62.8 92% 29.94 0.0
03 04:15 SW 5 10.00 Fair CLR 64.9 62.4 92% 29.94 0.0
03 03:55 Calm 10.00 Fair CLR 64.9 62.6 92% 29.94 0.0
03 03:35 Calm 10.00 Fair CLR 66 63 90% 29.94 0.0
03 03:15 SW 3 10.00 Fair CLR 66.6 63 88% 29.95 0.0
03 02:55 Calm 10.00 Fair CLR 65.8 62.2 88% 29.95 0.0
03 02:35 Calm 10.00 Fair CLR 66.6 63 88% 29.95 0.0
03 02:15 S 3 10.00 Fair CLR 66.6 62.8 88% 29.95 0.0
03 01:55 SW 3 10.00 Fair CLR 67.8 63.9 87% 29.96 0.0
03 01:35 Calm 10.00 Fair CLR 68 63.9 87% 29.96 0.0
03 01:15 SW 3 10.00 Fair CLR 68 63.7 86% 29.96 0.0
03 00:55 NW 5 10.00 Fair CLR 68.4 63.9 86% 29.97 0.0
03 00:35 Calm 10.00 Fair CLR 68.4 63.7 85% 29.97 0.0
03 00:15 W 5 10.00 Fair CLR 68.5 63.5 84% 29.96 0.0
02 23:55 W 6 10.00 Fair CLR 68.5 63.1 83% 29.96 0.0
02 23:35 W 5 10.00 Fair CLR 69.1 62.1 78% 29.96 0.0
02 23:15 W 3 10.00 Fair CLR 69.3 62.2 78% 29.96 0.0
02 22:55 W 5 10.00 Fair CLR 69.4 63 73.4 69.4 80% 29.96 0.0
02 22:35 W 10 9.00 Fair CLR 69.6 63.1 80% 29.95 0.0
02 22:15 NW 14 10.00 Fair CLR 69.6 63 79% 29.95 0.0
02 21:55 W 13 10.00 Fair CLR 69.8 62.4 78% 29.95 0.0
02 21:35 W 13 G 21 10.00 Fair CLR 69.8 62.8 79% 29.95 0.0
02 21:15 W 10 G 18 10.00 Fair CLR 69.8 62.2 77% 29.95 0.0
02 20:55 W 10 10.00 Fair CLR 69.8 61.3 75% 29.94 0.0
02 20:35 W 7 10.00 Fair CLR 69.6 60.6 73% 29.95 0.0
02 20:15 W 5 10.00 Fair CLR 69.8 60.3 72% 29.94 0.0
02 19:47 W 7 10.00 Fair CLR 69.8 59 69% 29.95 0.0
02 18:47 W 8 10.00 Fair CLR 71.6 59 65% 29.94 0.0
02 17:47 W 12 G 18 10.00 Fair CLR 71.6 60.8 69% 29.94 0.0
02 16:47 W 13 G 23 10.00 A Few Clouds FEW010 73.4 62.6 69% 29.95 0.0
02 15:52 NW 16 10.00 Fair CLR 75.2 60.8 61% 77 29.96 0.0
02 14:51 NW 15 10.00 Fair CLR 77 55.4 47% 79 29.97 0.0
02 13:49 NW 16 10.00 Fair CLR 77 59 54% 79 29.99 0.0
02 10:47 Calm 10.00 A Few Clouds FEW030 73.4 60.8 65% 30.02 0.0
02 09:47 Vrbl 6 10.00 Partly Cloudy SCT030 71.6 60.8 69% 30.01 0.0
02 08:50 SE 6 10.00 Partly Cloudy FEW018 SCT030 69.8 60.8 73% 30 0.0
02 07:47 Calm 10.00 A Few Clouds FEW030 66.2 60.8 83% 30 0.0
02 06:55 SW 3 10.00 Fair CLR 61.5 59.2 92% 29.99 0.0
02 06:49 Calm 10.00 Fair CLR 60.8 59 94% 29.99 0.0
02 06:35 Calm 8.00 Fair CLR 61.3 59 92% 29.98 0.0
02 06:15 SW 3 8.00 Fair CLR 61.3 59 92% 29.98 0.0
02 05:55 Calm 10.00 Fair CLR 61 58.8 93% 29.98 0.0
02 05:35 SW 5 10.00 Fair CLR 61.5 58.8 91% 29.98 0.0
02 05:15 SW 3 10.00 Fair CLR 61.3 58.6 91% 29.98 0.0
02 04:55 SW 5 10.00 Fair CLR 61.5 58.3 65.8 61.5 89% 29.98 0.0
02 04:35 SW 3 10.00 Fair CLR 61.9 58.3 88% 29.99 0.0
02 04:15 Calm 10.00 Fair CLR 62.2 58.6 88% 29.99 0.0
02 03:55 Calm 10.00 Fair CLR 62.2 58.6 88% 29.98 0.0
02 03:35 S 3 10.00 Fair CLR 62.2 58.5 88% 29.98 0.0
02 03:15 Calm 10.00 Fair CLR 62.6 58.8 88% 29.98 0.0
02 02:55 Calm 10.00 Fair CLR 63.1 59.2 87% 29.99 0.0
02 02:35 Calm 10.00 Fair CLR 62.8 58.8 87% 29.99 0.0
02 02:15 Calm 10.00 Fair CLR 62.2 58.6 88% 29.99 0.0
02 01:55 SW 5 10.00 Fair CLR 64.2 59.5 85% 29.99 0.0
02 01:35 SW 5 10.00 Fair CLR 63.1 59 86% 29.99 0.0
02 01:15 Calm 10.00 Fair CLR 62.4 58.5 87% 30 0.0
02 00:55 SW 5 10.00 Fair CLR 64.4 59.4 84% 29.99 0.0
02 00:15 SW 6 10.00 Fair CLR 64.8 59.5 83% 29.98 0.0
01 23:55 SW 5 10.00 Fair CLR 64.9 59.4 82% 29.98 0.0
01 23:35 SW 5 10.00 Fair CLR 65.3 59.5 82% 29.98 0.0
01 23:15 SW 3 10.00 Fair CLR 65.3 59.4 81% 29.98 0.0
01 22:55 SW 3 10.00 Fair CLR 66.2 59.2 72.9 66.2 78% 29.98 0.0
01 22:35 Calm 10.00 Fair CLR 66.9 59.4 77% 29.98 0.0
01 22:15 Calm 10.00 Fair CLR 67.1 59.2 76% 29.98 0.0
01 21:55 SW 3 10.00 Fair CLR 68.5 59.2 72% 29.97 0.0
01 21:35 Vrbl 5 10.00 Fair CLR 68.9 58.5 70% 29.97 0.0
01 21:15 W 7 10.00 Fair CLR 68.9 58.6 70% 29.96 0.0
01 20:55 W 8 10.00 Fair CLR 68.4 60.8 77% 29.95 0.0
01 20:35 NW 8 10.00 Fair CLR 68.5 61.5 78% 29.95 0.0
01 20:15 NW 12 10.00 Fair CLR 68.9 60.4 75% 29.94 0.0
01 19:50 W 8 10.00 Fair CLR 68 60.8 78% 29.94 0.0
01 18:50 W 10 10.00 Fair CLR 69.8 60.8 73% 29.93 0.0
01 16:47 NW 12 10.00 A Few Clouds FEW020 71.6 62.6 73% 29.95 0.0
01 15:47 NW 16 10.00 Fair CLR 75.2 62.6 65% 77 29.95 0.0
01 14:47 NW 15 10.00 Fair CLR 75.2 62.6 65% 77 29.96 0.0
01 13:47 NW 18 10.00 Fair CLR 77 62.6 61% 79 29.97 0.0
01 12:50 NW 16 10.00 Fair CLR 78.8 62.6 58% 80 29.98 0.0
01 11:47 NW 5 10.00 Fair CLR 75.2 60.8 61% 77 30 0.0
01 10:47 W 8 10.00 Fair CLR 73.4 62.6 69% 30 0.0
01 09:47 Calm 10.00 Partly Cloudy SCT018 71.6 62.6 73% 29.99 0.0
01 08:47 Calm 10.00 Mostly Cloudy BKN018 68 62.6 83% 29.99 0.0
01 07:47 W 5 10.00 Mostly Cloudy BKN016 68 62.6 83% 29.98 0.0
01 06:55 SW 3 9.00 Mostly Cloudy BKN017 64.9 61.3 88% 29.96 0.0
01 06:48 Calm 10.00 Mostly Cloudy BKN017 82.4 60.8 48% 83 29.96 0.0
01 06:35 SW 3 9.00 Partly Cloudy SCT017 64.9 61 87% 29.96 0.0
01 06:15 SW 5 10.00 Fair CLR 63.7 61 91% 29.95 0.0
01 05:55 SW 5 10.00 A Few Clouds FEW018 63.7 60.8 90% 29.95 0.0
01 05:35 SW 5 10.00 A Few Clouds FEW018 63.5 60.6 90% 29.95 0.0
01 05:15 SW 3 10.00 Fair CLR 63 60.3 91% 29.95 0.0
01 04:55 SW 3 10.00 Fair CLR 63.1 60.4 67.6 62.8 91% 29.94 0.0
01 04:35 Calm 10.00 Fair CLR 63 60.1 90% 29.94 0.0
01 04:15 Calm 10.00 Fair CLR 63.5 60.4 90% 29.94 0.0
01 03:35 Calm 10.00 Fair CLR 64.2 60.6 88% 29.95 0.0
01 03:15 Calm 10.00 Fair CLR 64.6 61 88% 29.95 0.0
01 02:55 Calm 10.00 Fair CLR 64.6 61.2 89% 29.95 0.0
01 02:35 Calm 10.00 Fair CLR 64.9 61.3 88% 29.95 0.0
01 02:15 SW 3 10.00 Fair CLR 64.6 61.3 89% 29.95 0.0
01 01:55 Calm 10.00 Fair CLR 64.6 61.3 89% 29.95 0.0
01 01:35 SW 3 10.00 Fair CLR 64.8 61.3 89% 29.96 0.0
01 01:15 Calm 10.00 Fair CLR 65.5 61.9 88% 29.95 0.0
01 00:35 Calm 10.00 Fair CLR 66.2 62.1 87% 29.95 0.0
01 00:15 Calm 10.00 Fair CLR 66 61.9 87% 29.95 0.0
31 23:55 Calm 10.00 Fair CLR 66.7 62.2 86% 29.95 0.0
Date Time (pdt) Wind (mph) Vis. (mi.) Weather Sky Cond. Air Dwpt Max. Min. Relative Humidity Wind Chill (°F) Heat Index (°F) altimeter (in) sea level (mb) 1 hr 3 hr 6 hr
6 hour
Temperature (ºF) Pressure Precipitation (in)